createdAt,value
2022-08-30T00:01:04.739Z,0
2022-08-30T00:06:27.407Z,0
2022-08-30T00:11:50.155Z,0
2022-08-30T00:17:12.649Z,0
2022-08-30T00:22:48.990Z,0
2022-08-30T00:28:11.329Z,0
2022-08-30T00:44:18.120Z,0
2022-08-30T00:49:40.891Z,0
2022-08-30T00:55:03.557Z,0
2022-08-30T01:00:26.018Z,0
2022-08-30T01:05:48.373Z,0
2022-08-30T01:11:10.745Z,0
2022-08-30T01:21:58.251Z,0
2022-08-30T01:27:20.727Z,0
2022-08-30T01:32:43.283Z,0
2022-08-30T01:38:05.843Z,0
2022-08-30T01:43:28.065Z,0
2022-08-30T01:48:54.711Z,0
2022-08-30T01:54:17.316Z,0
2022-08-30T01:59:47.415Z,0
2022-08-30T02:05:10.155Z,0
2022-08-30T02:10:32.877Z,0
2022-08-30T02:26:43.419Z,0
2022-08-30T02:32:06.194Z,0
2022-08-30T02:37:45.858Z,0
2022-08-30T02:43:08.676Z,0
2022-08-30T02:48:31.312Z,0
2022-08-30T02:53:59.224Z,0
2022-08-30T02:59:21.576Z,0
2022-08-30T03:04:43.815Z,0
2022-08-30T03:10:06.075Z,0
2022-08-30T03:15:28.422Z,0
2022-08-30T03:20:55.270Z,0
2022-08-30T03:26:18.010Z,0
2022-08-30T03:31:54.324Z,0
2022-08-30T03:37:21.530Z,0
2022-08-30T03:42:58.300Z,0
2022-08-30T03:48:38.839Z,0
2022-08-30T03:54:01.463Z,0
2022-08-30T03:59:23.967Z,0
2022-08-30T04:04:46.465Z,0
2022-08-30T04:10:12.237Z,0
2022-08-30T04:20:40.268Z,0
2022-08-30T04:26:03.441Z,0
2022-08-30T04:31:26.526Z,7
2022-08-30T04:41:58.017Z,16
2022-08-30T04:47:21.745Z,28
2022-08-30T04:57:49.846Z,36.5
2022-08-30T05:03:12.384Z,49.8
2022-08-30T05:14:01.049Z,56.4
2022-08-30T05:19:24.136Z,58.9
2022-08-30T05:24:46.708Z,75.6
2022-08-30T05:30:09.148Z,89.4
2022-08-30T05:35:31.636Z,110.7
2022-08-30T05:40:57.776Z,132.7
2022-08-30T05:46:22.802Z,210.5
2022-08-30T05:51:45.789Z,267.8
2022-08-30T05:57:08.640Z,203.1
2022-08-30T06:02:34.967Z,315.9
2022-08-30T06:07:57.592Z,298.5
2022-08-30T06:13:22.532Z,340.3
2022-08-30T06:18:54.829Z,352.9
2022-08-30T06:24:18.652Z,286.7
2022-08-30T06:29:41.108Z,437.8
2022-08-30T06:40:26.720Z,577.1
2022-08-30T06:46:02.903Z,1156.9
2022-08-30T06:56:59.363Z,914.4
2022-08-30T07:02:22.771Z,614.4
2022-08-30T07:07:45.578Z,815.3
2022-08-30T07:13:08.159Z,877.2
2022-08-30T07:18:33.286Z,647.9
2022-08-30T07:23:55.227Z,578.8
2022-08-30T07:34:43.049Z,653.2
2022-08-30T07:40:06.096Z,718.3
2022-08-30T07:45:28.677Z,755.1
2022-08-30T07:51:07.238Z,1935.8
2022-08-30T07:56:30.882Z,1676.6
2022-08-30T08:01:54.038Z,2376.8
2022-08-30T08:07:16.748Z,1804.1
2022-08-30T08:12:40.279Z,1665
2022-08-30T08:18:02.437Z,1198.3
2022-08-30T08:23:26.834Z,1002.4
2022-08-30T08:28:48.967Z,769.9
2022-08-30T08:50:27.122Z,2919
2022-08-30T08:55:53.288Z,2847.5
2022-08-30T09:01:17.077Z,3135.5
2022-08-30T09:06:45.825Z,2695.9
2022-08-30T09:12:09.193Z,2795.2
2022-08-30T09:17:31.789Z,3451.2
2022-08-30T09:22:57.011Z,3224.9
2022-08-30T09:28:20.394Z,3342
2022-08-30T09:33:43.302Z,3157.3
2022-08-30T09:39:05.888Z,3323
2022-08-30T09:44:40.213Z,3686.2
2022-08-30T09:55:31.821Z,3057.5
2022-08-30T10:01:05.241Z,3118.1
2022-08-30T10:06:28.216Z,3626.4
2022-08-30T10:11:51.354Z,1517
2022-08-30T10:17:13.781Z,1356.6
2022-08-30T10:22:36.096Z,3471.6
2022-08-30T10:27:59.790Z,3848.1
2022-08-30T10:33:25.758Z,3567
2022-08-30T10:38:50.282Z,3150.7
2022-08-30T10:44:12.513Z,3375
2022-08-30T10:49:35.597Z,3514.6
2022-08-30T10:54:58.267Z,3045.3
2022-08-30T11:00:24.298Z,3702.7
2022-08-30T11:05:47.259Z,3674.5
2022-08-30T11:22:01.955Z,3281.3
2022-08-30T11:27:28.996Z,3404
2022-08-30T11:32:51.555Z,3758.2
2022-08-30T11:43:45.246Z,2611.3
2022-08-30T11:49:16.327Z,1657.2
2022-08-30T11:54:37.123Z,1944.6
2022-08-30T12:00:06.892Z,2116.4
2022-08-30T12:05:29.129Z,2918.9
2022-08-30T12:10:56.680Z,3592.7
2022-08-30T12:16:21.748Z,3238.4
2022-08-30T12:27:08.352Z,3728.1
2022-08-30T12:32:31.165Z,3528
2022-08-30T12:37:53.951Z,3609
2022-08-30T12:43:15.623Z,2284.1
2022-08-30T12:48:42.482Z,3121.8
2022-08-30T12:54:05.549Z,3349.3
2022-08-30T12:59:28.958Z,3319.4
2022-08-30T13:04:57.638Z,3199.5
2022-08-30T13:10:20.339Z,3323.3
2022-08-30T13:15:42.643Z,3256.6
2022-08-30T13:21:04.594Z,3247.8
2022-08-30T13:27:04.375Z,2851.7
2022-08-30T13:32:27.338Z,3431.5
2022-08-30T13:37:52.325Z,3018.1
2022-08-30T13:48:36.511Z,2350.3
2022-08-30T13:53:59.235Z,2652.2
2022-08-30T13:59:23.098Z,1347.7
2022-08-30T14:04:46.852Z,3024.1
2022-08-30T14:10:47.751Z,3575.6
2022-08-30T14:16:41.574Z,2037
2022-08-30T14:22:04.571Z,3216.3
2022-08-30T14:27:31.597Z,3168.6
2022-08-30T14:32:54.589Z,2233.1
2022-08-30T14:38:19.437Z,2302.5
2022-08-30T14:43:44.240Z,987.8
2022-08-30T14:49:06.224Z,2221.8
2022-08-30T14:54:27.655Z,698.1
2022-08-30T14:59:50.317Z,582.7
2022-08-30T15:10:39.963Z,464.2
2022-08-30T15:16:07.088Z,437.1
2022-08-30T15:21:30.433Z,461.8
2022-08-30T15:26:55.142Z,462.4
2022-08-30T15:32:18.700Z,485.6
2022-08-30T15:37:41.210Z,503.9
2022-08-30T15:43:04.259Z,533.7
2022-08-30T15:48:30.549Z,532.6
2022-08-30T15:53:53.440Z,627
2022-08-30T15:59:23.477Z,637.8
2022-08-30T16:04:46.774Z,445.4
2022-08-30T16:15:34.892Z,445.3
2022-08-30T16:20:59.090Z,420.4
2022-08-30T16:26:28.059Z,386.6
2022-08-30T16:36:54.162Z,334.6
2022-08-30T16:42:21.763Z,304
2022-08-30T16:53:08.256Z,321
2022-08-30T16:58:31.851Z,291.8
2022-08-30T17:03:54.449Z,270.6
2022-08-30T17:09:21.255Z,244
2022-08-30T17:14:44.649Z,211.8
2022-08-30T17:20:12.498Z,185.4
2022-08-30T17:25:35.022Z,164.7
2022-08-30T17:30:57.759Z,151
2022-08-30T17:36:21.131Z,125.4
2022-08-30T17:41:53.851Z,101.7
2022-08-30T17:47:16.351Z,69.6
2022-08-30T17:52:39.679Z,50.9
2022-08-30T17:58:21.750Z,41.5
2022-08-30T18:03:45.883Z,40.2
2022-08-30T18:09:08.210Z,33.8
2022-08-30T18:14:30.726Z,30.5
2022-08-30T18:30:42.585Z,16
2022-08-30T18:36:05.162Z,6
2022-08-30T18:41:32.946Z,0
2022-08-30T18:47:32.646Z,0
2022-08-30T18:52:59.750Z,0
2022-08-30T18:58:23.054Z,0
2022-08-30T19:03:47.482Z,0
2022-08-30T19:09:27.369Z,0
2022-08-30T19:14:50.331Z,0
2022-08-30T19:20:18.174Z,0
2022-08-30T19:25:41.057Z,0
2022-08-30T19:31:08.968Z,0
2022-08-30T19:36:31.608Z,0
2022-08-30T19:41:53.847Z,0
2022-08-30T19:47:16.565Z,0
2022-08-30T19:52:39.232Z,0
2022-08-30T19:58:03.426Z,0
2022-08-30T20:03:26.050Z,0
2022-08-30T20:14:14.123Z,0
2022-08-30T20:19:36.996Z,0
2022-08-30T20:25:00.376Z,0
2022-08-30T20:30:23.307Z,0
2022-08-30T20:35:50.224Z,0
2022-08-30T20:41:12.610Z,0
2022-08-30T20:46:35.613Z,0
2022-08-30T20:51:57.949Z,0
2022-08-30T20:57:24.765Z,0
2022-08-30T21:03:28.458Z,0
2022-08-30T21:08:55.823Z,0
2022-08-30T21:14:19.584Z,0
2022-08-30T21:20:01.906Z,0
2022-08-30T21:25:24.721Z,0
2022-08-30T21:30:47.617Z,0
2022-08-30T21:36:10.152Z,0
2022-08-30T21:41:32.532Z,0
2022-08-30T21:46:55.102Z,0
2022-08-30T21:52:17.591Z,0
2022-08-30T21:57:40.170Z,0
2022-08-30T22:03:02.974Z,0
2022-08-30T22:08:32.865Z,0
2022-08-30T22:19:33.728Z,0
2022-08-30T22:24:56.730Z,0
2022-08-30T22:30:18.997Z,0
2022-08-30T22:35:41.719Z,0
2022-08-30T22:41:06.677Z,0
2022-08-30T22:46:35.102Z,0
2022-08-30T22:51:57.924Z,0
2022-08-30T22:57:20.578Z,0
2022-08-30T23:02:46.397Z,0
2022-08-30T23:08:09.371Z,0
2022-08-30T23:13:31.888Z,0
2022-08-30T23:18:57.174Z,0
2022-08-30T23:24:19.890Z,0
2022-08-30T23:29:42.389Z,0
2022-08-30T23:35:10.934Z,0
2022-08-30T23:40:36.368Z,0
2022-08-30T23:45:59.144Z,0
2022-08-30T23:51:24.707Z,0
2022-08-30T23:56:47.247Z,0
